createdAt,value
2023-09-18T00:00:53.380Z,100866.19
2023-09-18T00:03:26.021Z,100857.22
2023-09-18T00:05:54.924Z,100857.22
2023-09-18T00:08:22.623Z,100849.94
2023-09-18T00:13:23.841Z,100854.25
2023-09-18T00:15:56.851Z,100850.59
2023-09-18T00:18:25.020Z,100851.47
2023-09-18T00:20:53.504Z,100850.28
2023-09-18T00:23:21.544Z,100840.25
2023-09-18T00:25:49.636Z,100846.00
2023-09-18T00:28:18.129Z,100851.94
2023-09-18T00:30:51.615Z,100847.56
2023-09-18T00:33:21.203Z,100851.78
2023-09-18T00:35:53.420Z,100855.66
2023-09-18T00:38:22.023Z,100854.78
2023-09-18T00:40:50.149Z,100854.00
2023-09-18T00:43:19.364Z,100848.09
2023-09-18T00:45:49.735Z,100849.59
2023-09-18T00:48:18.608Z,100846.34
2023-09-18T00:50:47.762Z,100846.75
2023-09-18T00:53:23.785Z,100848.38
2023-09-18T00:55:57.767Z,100847.47
2023-09-18T01:00:55.054Z,100845.09
2023-09-18T01:03:24.425Z,100847.37
2023-09-18T01:05:53.185Z,100846.69
2023-09-18T01:08:21.873Z,100839.91
2023-09-18T01:10:54.244Z,100841.19
2023-09-18T01:13:38.197Z,100834.81
2023-09-18T01:16:15.962Z,100835.38
2023-09-18T01:18:52.397Z,100842.38
2023-09-18T01:21:22.273Z,100840.94
2023-09-18T01:23:50.950Z,100846.53
2023-09-18T01:26:19.190Z,100836.03
2023-09-18T01:28:47.282Z,100835.56
2023-09-18T01:31:15.713Z,100831.50
2023-09-18T01:33:46.006Z,100832.19
2023-09-18T01:36:15.741Z,100828.56
2023-09-18T01:38:44.615Z,100827.47
2023-09-18T01:41:14.587Z,100831.41
2023-09-18T01:43:42.655Z,100822.41
2023-09-18T01:46:11.674Z,100828.06
2023-09-18T01:48:46.629Z,100824.41
2023-09-18T01:51:17.840Z,100819.38
2023-09-18T01:53:46.009Z,100822.50
2023-09-18T01:56:14.533Z,100826.81
2023-09-18T01:58:42.765Z,100819.59
2023-09-18T02:01:11.320Z,100820.50
2023-09-18T02:04:00.776Z,100823.19
2023-09-18T02:08:57.589Z,100813.59
2023-09-18T02:11:26.253Z,100812.87
2023-09-18T02:13:54.335Z,100807.72
2023-09-18T02:16:25.548Z,100807.72
2023-09-18T02:18:57.073Z,100795.34
2023-09-18T02:21:25.783Z,100801.50
2023-09-18T02:23:54.867Z,100799.66
2023-09-18T02:26:26.322Z,100805.19
2023-09-18T02:28:55.785Z,100804.06
2023-09-18T02:31:24.472Z,100797.19
2023-09-18T02:33:52.490Z,100804.72
2023-09-18T02:36:20.991Z,100786.75
2023-09-18T02:38:51.457Z,100783.81
2023-09-18T02:41:19.493Z,100790.81
2023-09-18T02:43:48.801Z,100788.59
2023-09-18T02:46:18.174Z,100784.78
2023-09-18T02:48:46.384Z,100780.56
2023-09-18T02:51:15.012Z,100783.63
2023-09-18T02:53:42.943Z,100783.75
2023-09-18T02:56:11.630Z,100782.25
2023-09-18T02:58:40.128Z,100782.91
2023-09-18T03:01:08.680Z,100781.28
2023-09-18T03:03:37.023Z,100776.13
2023-09-18T03:06:06.554Z,100785.87
2023-09-18T03:08:36.427Z,100771.50
2023-09-18T03:11:04.985Z,100776.72
2023-09-18T03:13:33.499Z,100771.69
2023-09-18T03:16:01.514Z,100769.84
2023-09-18T03:18:29.766Z,100778.44
2023-09-18T03:20:58.208Z,100780.44
2023-09-18T03:23:26.364Z,100767.81
2023-09-18T03:25:54.409Z,100776.56
2023-09-18T03:28:22.858Z,100780.50
2023-09-18T03:30:51.479Z,100776.56
2023-09-18T03:33:20.017Z,100765.03
2023-09-18T03:35:51.155Z,100768.53
2023-09-18T03:38:20.006Z,100773.56
2023-09-18T03:40:48.882Z,100762.19
2023-09-18T03:43:17.173Z,100762.53
2023-09-18T03:45:45.309Z,100765.03
2023-09-18T03:48:13.862Z,100759.72
2023-09-18T03:50:42.166Z,100765.00
2023-09-18T03:55:39.396Z,100767.53
2023-09-18T03:58:07.770Z,100758.09
2023-09-18T04:03:02.701Z,100765.94
2023-09-18T04:05:30.794Z,100754.38
2023-09-18T04:07:58.953Z,100741.69
2023-09-18T04:10:28.012Z,100747.78
2023-09-18T04:12:56.166Z,100750.31
2023-09-18T04:15:24.643Z,100751.16
2023-09-18T04:17:53.498Z,100759.78
2023-09-18T04:20:21.694Z,100753.94
2023-09-18T04:23:09.822Z,100741.84
2023-09-18T04:25:38.317Z,100756.19
2023-09-18T04:28:06.569Z,100760.75
2023-09-18T04:30:35.421Z,100761.56
2023-09-18T04:33:04.317Z,100764.22
2023-09-18T04:35:33.210Z,100763.50
2023-09-18T04:40:33.639Z,100746.91
2023-09-18T04:43:03.578Z,100758.53
2023-09-18T04:45:33.337Z,100755.47
2023-09-18T04:48:01.240Z,100749.09
2023-09-18T04:50:31.181Z,100756.50
2023-09-18T04:52:59.659Z,100749.84
2023-09-18T04:55:28.085Z,100747.94
2023-09-18T04:57:56.203Z,100751.00
2023-09-18T05:00:26.697Z,100730.94
2023-09-18T05:02:55.036Z,100743.44
2023-09-18T05:05:23.499Z,100744.22
2023-09-18T05:07:52.057Z,100753.75
2023-09-18T05:10:20.641Z,100749.06
2023-09-18T05:12:51.937Z,100750.88
2023-09-18T05:15:20.440Z,100740.06
2023-09-18T05:17:53.707Z,100739.34
2023-09-18T05:20:25.876Z,100746.84
2023-09-18T05:22:54.618Z,100743.69
2023-09-18T05:25:24.275Z,100739.69
2023-09-18T05:28:01.205Z,100731.03
2023-09-18T05:30:35.678Z,100742.91
2023-09-18T05:33:08.957Z,100735.00
2023-09-18T05:35:45.995Z,100737.50
2023-09-18T05:38:19.389Z,100730.94
2023-09-18T05:40:48.645Z,100727.34
2023-09-18T05:43:16.813Z,100723.56
2023-09-18T05:45:45.248Z,100718.75
2023-09-18T05:48:14.616Z,100715.50
2023-09-18T05:50:43.454Z,100719.59
2023-09-18T05:53:11.549Z,100729.31
2023-09-18T05:58:08.487Z,100721.13
2023-09-18T06:00:38.316Z,100718.84
2023-09-18T06:03:08.074Z,100725.78
2023-09-18T06:05:37.059Z,100726.69
2023-09-18T06:08:05.163Z,100730.41
2023-09-18T06:10:33.483Z,100725.37
2023-09-18T06:13:06.263Z,100722.22
2023-09-18T06:15:34.660Z,100724.00
2023-09-18T06:18:04.860Z,100710.44
2023-09-18T06:20:33.159Z,100703.44
2023-09-18T06:23:01.625Z,100710.91
2023-09-18T06:25:29.557Z,100720.78
2023-09-18T06:27:57.860Z,100726.62
2023-09-18T06:35:20.996Z,100731.97
2023-09-18T06:37:49.713Z,100725.50
2023-09-18T06:40:18.090Z,100734.34
2023-09-18T06:45:15.096Z,100735.91
2023-09-18T06:47:43.501Z,100736.28
2023-09-18T06:50:13.902Z,100731.16
2023-09-18T06:52:42.352Z,100725.37
2023-09-18T06:55:11.102Z,100722.34
2023-09-18T06:57:39.523Z,100729.06
2023-09-18T07:00:10.753Z,100721.63
2023-09-18T07:02:40.828Z,100728.50
2023-09-18T07:05:11.824Z,100727.31
2023-09-18T07:07:40.472Z,100739.47
2023-09-18T07:10:09.300Z,100732.22
2023-09-18T07:12:37.901Z,100721.72
2023-09-18T07:15:07.674Z,100736.13
2023-09-18T07:17:36.991Z,100728.56
2023-09-18T07:20:16.080Z,100739.34
2023-09-18T07:22:51.908Z,100735.47
2023-09-18T07:25:20.311Z,100732.72
2023-09-18T07:27:48.912Z,100725.84
2023-09-18T07:30:22.168Z,100737.47
2023-09-18T07:32:50.680Z,100717.81
2023-09-18T07:35:19.156Z,100727.44
2023-09-18T07:37:48.313Z,100728.25
2023-09-18T07:40:19.592Z,100731.16
2023-09-18T07:42:48.077Z,100725.28
2023-09-18T07:45:17.209Z,100725.37
2023-09-18T07:47:45.901Z,100735.03
2023-09-18T07:50:15.020Z,100736.56
2023-09-18T07:52:44.329Z,100727.59
2023-09-18T07:55:12.423Z,100727.06
2023-09-18T07:57:40.758Z,100727.09
2023-09-18T08:00:13.878Z,100719.75
2023-09-18T08:02:44.255Z,100711.06
2023-09-18T08:05:16.402Z,100711.06
2023-09-18T08:07:44.779Z,100712.72
2023-09-18T08:10:14.341Z,100719.66
2023-09-18T08:12:44.853Z,100735.16
2023-09-18T08:15:13.227Z,100723.03
2023-09-18T08:17:42.609Z,100715.28
2023-09-18T08:20:15.228Z,100720.16
2023-09-18T08:22:45.223Z,100713.06
2023-09-18T08:25:13.879Z,100716.75
2023-09-18T08:28:00.188Z,100714.75
2023-09-18T08:30:28.797Z,100725.19
2023-09-18T08:32:56.886Z,100720.41
2023-09-18T08:35:30.447Z,100722.94
2023-09-18T08:37:59.046Z,100727.44
2023-09-18T08:40:27.626Z,100717.78
2023-09-18T08:42:58.119Z,100719.88
2023-09-18T08:45:34.673Z,100717.19
2023-09-18T08:48:04.113Z,100716.03
2023-09-18T08:50:33.184Z,100706.94
2023-09-18T08:55:36.157Z,100722.34
2023-09-18T08:58:04.905Z,100714.72
2023-09-18T09:00:42.887Z,100717.75
2023-09-18T09:03:12.294Z,100717.25
2023-09-18T09:05:44.175Z,100705.06
2023-09-18T09:08:12.894Z,100709.62
2023-09-18T09:10:41.376Z,100710.22
2023-09-18T09:13:09.962Z,100696.53
2023-09-18T09:15:48.134Z,100692.03
2023-09-18T09:18:16.648Z,100689.75
2023-09-18T09:20:59.163Z,100693.91
2023-09-18T09:23:29.439Z,100690.22
2023-09-18T09:26:24.784Z,100689.31
2023-09-18T09:28:54.078Z,100693.03
2023-09-18T09:31:32.390Z,100701.13
2023-09-18T09:34:02.927Z,100688.19
2023-09-18T09:36:34.866Z,100687.69
2023-09-18T09:41:33.340Z,100686.66
2023-09-18T09:44:01.975Z,100682.34
2023-09-18T09:46:31.321Z,100686.12
2023-09-18T09:49:05.578Z,100684.69
2023-09-18T09:54:02.898Z,100681.66
2023-09-18T09:56:57.859Z,100687.03
2023-09-18T09:59:27.567Z,100683.09
2023-09-18T10:01:56.113Z,100676.50
2023-09-18T10:04:27.721Z,100686.50
2023-09-18T10:09:43.289Z,100686.16
2023-09-18T10:12:25.273Z,100694.19
2023-09-18T10:15:02.589Z,100688.31
2023-09-18T10:17:35.976Z,100694.00
2023-09-18T10:20:10.699Z,100685.34
2023-09-18T10:22:40.079Z,100690.63
2023-09-18T10:25:25.562Z,100687.44
2023-09-18T10:28:03.154Z,100694.72
2023-09-18T10:30:38.891Z,100683.22
2023-09-18T10:33:09.322Z,100673.41
2023-09-18T10:35:39.302Z,100692.22
2023-09-18T10:38:09.226Z,100696.69
2023-09-18T10:40:39.452Z,100694.87
2023-09-18T10:43:11.347Z,100697.06
2023-09-18T10:45:42.112Z,100692.72
2023-09-18T10:48:11.823Z,100698.06
2023-09-18T10:50:45.286Z,100691.56
2023-09-18T10:53:14.966Z,100704.75
2023-09-18T10:55:44.864Z,100694.03
2023-09-18T10:58:25.558Z,100698.34
2023-09-18T11:00:56.289Z,100700.50
2023-09-18T11:03:26.580Z,100707.53
2023-09-18T11:06:11.124Z,100711.59
2023-09-18T11:08:51.555Z,100709.19
2023-09-18T11:11:27.419Z,100708.78
2023-09-18T11:13:56.219Z,100715.56
2023-09-18T11:16:30.216Z,100708.72
2023-09-18T11:21:30.036Z,100712.63
2023-09-18T11:24:07.409Z,100712.81
2023-09-18T11:26:37.905Z,100705.59
2023-09-18T11:29:08.223Z,100716.16
2023-09-18T11:31:55.441Z,100706.84
2023-09-18T11:34:40.244Z,100715.84
2023-09-18T11:37:22.488Z,100714.47
2023-09-18T11:39:57.020Z,100723.75
2023-09-18T11:42:31.186Z,100713.28
2023-09-18T11:45:00.480Z,100728.13
2023-09-18T11:47:30.693Z,100710.69
2023-09-18T11:52:31.571Z,100713.00
2023-09-18T11:55:02.948Z,100713.97
2023-09-18T11:57:38.824Z,100714.16
2023-09-18T12:00:24.036Z,100723.00
2023-09-18T12:03:16.108Z,100722.19
2023-09-18T12:05:46.155Z,100716.41
2023-09-18T12:08:18.260Z,100718.75
2023-09-18T12:10:50.369Z,100725.69
2023-09-18T12:13:19.241Z,100726.34
2023-09-18T12:15:48.261Z,100721.22
2023-09-18T12:18:18.284Z,100719.50
2023-09-18T12:20:49.228Z,100723.88
2023-09-18T12:25:52.167Z,100716.13
2023-09-18T12:28:20.462Z,100720.09
2023-09-18T12:30:51.853Z,100720.72
2023-09-18T12:33:22.244Z,100718.75
2023-09-18T12:35:53.411Z,100717.63
2023-09-18T12:38:27.264Z,100717.59
2023-09-18T12:40:56.166Z,100718.06
2023-09-18T12:43:26.038Z,100719.13
2023-09-18T12:45:54.645Z,100723.78
2023-09-18T12:48:25.964Z,100724.50
2023-09-18T12:50:55.284Z,100725.41
2023-09-18T12:53:24.835Z,100721.87
2023-09-18T12:55:53.197Z,100722.56
2023-09-18T12:58:22.234Z,100719.13
2023-09-18T13:00:55.499Z,100716.75
2023-09-18T13:03:24.738Z,100716.72
2023-09-18T13:06:12.187Z,100720.22
2023-09-18T13:08:40.818Z,100722.59
2023-09-18T13:11:12.517Z,100724.41
2023-09-18T13:13:54.069Z,100712.09
2023-09-18T13:16:25.283Z,100711.81
2023-09-18T13:18:54.430Z,100717.00
2023-09-18T13:21:22.988Z,100717.25
2023-09-18T13:23:51.467Z,100724.00
2023-09-18T13:26:20.515Z,100720.09
2023-09-18T13:28:49.207Z,100713.41
2023-09-18T13:31:19.838Z,100715.22
2023-09-18T13:33:53.232Z,100719.56
2023-09-18T13:36:22.716Z,100723.22
2023-09-18T13:38:51.549Z,100730.59
2023-09-18T13:41:20.059Z,100724.94
2023-09-18T13:43:50.281Z,100726.94
2023-09-18T13:46:19.228Z,100724.81
2023-09-18T13:48:49.229Z,100719.78
2023-09-18T13:51:17.497Z,100715.06
2023-09-18T13:53:46.480Z,100726.16
2023-09-18T13:56:14.948Z,100716.91
2023-09-18T13:58:43.093Z,100722.34
2023-09-18T14:01:12.402Z,100722.47
2023-09-18T14:03:43.643Z,100721.50
2023-09-18T14:06:12.615Z,100727.59
2023-09-18T14:08:42.026Z,100736.41
2023-09-18T14:11:11.603Z,100730.84
2023-09-18T14:13:41.108Z,100734.25
2023-09-18T14:16:10.727Z,100736.53
2023-09-18T14:18:39.327Z,100739.16
2023-09-18T14:21:08.280Z,100738.56
2023-09-18T14:23:37.426Z,100744.50
2023-09-18T14:26:07.018Z,100744.78
2023-09-18T14:28:35.814Z,100741.44
2023-09-18T14:31:05.566Z,100747.72
2023-09-18T14:33:35.467Z,100737.00
2023-09-18T14:36:05.527Z,100744.06
2023-09-18T14:38:34.116Z,100743.44
2023-09-18T14:41:04.327Z,100725.25
2023-09-18T14:43:32.373Z,100741.84
2023-09-18T14:46:01.273Z,100740.34
2023-09-18T14:48:30.777Z,100741.41
2023-09-18T14:50:59.250Z,100745.47
2023-09-18T14:53:28.072Z,100744.75
2023-09-18T14:55:56.879Z,100743.91
2023-09-18T14:58:25.484Z,100746.75
2023-09-18T15:00:55.606Z,100744.25
2023-09-18T15:03:26.383Z,100745.75
2023-09-18T15:05:57.144Z,100753.44
2023-09-18T15:08:26.574Z,100742.09
2023-09-18T15:10:55.789Z,100741.47
2023-09-18T15:13:24.157Z,100745.13
2023-09-18T15:15:52.424Z,100753.78
2023-09-18T15:18:21.212Z,100752.28
2023-09-18T15:20:49.777Z,100756.44
2023-09-18T15:23:23.794Z,100749.94
2023-09-18T15:25:55.165Z,100753.94
2023-09-18T15:28:24.172Z,100749.22
2023-09-18T15:30:53.977Z,100751.16
2023-09-18T15:33:26.998Z,100739.63
2023-09-18T15:35:55.812Z,100747.31
2023-09-18T15:38:23.870Z,100741.19
2023-09-18T15:40:52.030Z,100748.53
2023-09-18T15:43:23.073Z,100753.28
2023-09-18T15:45:51.411Z,100754.75
2023-09-18T15:48:20.730Z,100764.09
2023-09-18T15:50:49.175Z,100758.34
2023-09-18T15:53:17.856Z,100762.66
2023-09-18T15:55:47.218Z,100760.97
2023-09-18T15:58:16.424Z,100757.12
2023-09-18T16:00:44.803Z,100765.06
2023-09-18T16:03:13.990Z,100765.31
2023-09-18T16:05:42.561Z,100771.09
2023-09-18T16:08:11.177Z,100767.50
2023-09-18T16:13:08.820Z,100766.44
2023-09-18T16:15:37.558Z,100766.47
2023-09-18T16:18:10.444Z,100766.28
2023-09-18T16:20:44.780Z,100765.47
2023-09-18T16:23:16.511Z,100766.13
2023-09-18T16:25:44.925Z,100778.38
2023-09-18T16:28:15.942Z,100788.81
2023-09-18T16:30:44.702Z,100785.34
2023-09-18T16:33:18.398Z,100785.34
2023-09-18T16:38:16.087Z,100779.87
2023-09-18T16:40:45.903Z,100789.87
2023-09-18T16:43:14.404Z,100783.97
2023-09-18T16:45:45.656Z,100778.31
2023-09-18T16:48:15.171Z,100784.09
2023-09-18T16:50:45.172Z,100781.31
2023-09-18T16:53:13.876Z,100780.06
2023-09-18T16:55:42.221Z,100777.47
2023-09-18T16:58:16.319Z,100783.88
2023-09-18T17:00:47.653Z,100780.28
2023-09-18T17:03:16.298Z,100776.69
2023-09-18T17:05:45.067Z,100773.53
2023-09-18T17:10:49.951Z,100772.87
2023-09-18T17:13:18.276Z,100786.09
2023-09-18T17:15:55.073Z,100786.94
2023-09-18T17:18:26.694Z,100784.94
2023-09-18T17:21:09.497Z,100789.47
2023-09-18T17:23:38.583Z,100793.88
2023-09-18T17:26:11.176Z,100794.19
2023-09-18T17:31:06.127Z,100795.00
2023-09-18T17:33:35.389Z,100782.75
2023-09-18T17:38:30.209Z,100798.06
2023-09-18T17:40:59.192Z,100798.47
2023-09-18T17:43:28.336Z,100804.72
2023-09-18T17:45:59.157Z,100802.19
2023-09-18T17:50:55.392Z,100798.41
2023-09-18T17:53:32.290Z,100806.78
2023-09-18T17:56:01.064Z,100787.97
2023-09-18T17:58:29.521Z,100807.19
2023-09-18T18:00:58.349Z,100809.63
2023-09-18T18:05:55.120Z,100812.06
2023-09-18T18:08:23.960Z,100808.31
2023-09-18T18:10:52.725Z,100804.34
2023-09-18T18:15:51.143Z,100806.06
2023-09-18T18:18:22.448Z,100804.84
2023-09-18T18:20:51.080Z,100810.13
2023-09-18T18:23:20.291Z,100812.41
2023-09-18T18:25:56.123Z,100807.91
2023-09-18T18:28:25.033Z,100812.41
2023-09-18T18:30:53.207Z,100818.53
2023-09-18T18:35:48.304Z,100810.72
2023-09-18T18:38:16.573Z,100805.78
2023-09-18T18:41:00.237Z,100812.44
2023-09-18T18:43:36.274Z,100810.00
2023-09-18T18:48:34.446Z,100819.94
2023-09-18T18:51:03.800Z,100812.16
2023-09-18T18:53:32.401Z,100825.09
2023-09-18T18:56:00.976Z,100814.00
2023-09-18T18:58:29.273Z,100818.94
2023-09-18T19:01:02.284Z,100816.91
2023-09-18T19:03:31.749Z,100815.59
2023-09-18T19:06:01.034Z,100820.56
2023-09-18T19:08:30.356Z,100813.84
2023-09-18T19:11:00.934Z,100824.03
2023-09-18T19:16:00.196Z,100815.03
2023-09-18T19:18:31.763Z,100807.72
2023-09-18T19:21:00.689Z,100805.28
2023-09-18T19:23:29.588Z,100815.94
2023-09-18T19:25:57.987Z,100816.25
2023-09-18T19:28:28.065Z,100813.44
2023-09-18T19:31:00.393Z,100810.19
2023-09-18T19:33:29.421Z,100810.53
2023-09-18T19:35:58.089Z,100814.91
2023-09-18T19:38:26.153Z,100798.50
2023-09-18T19:40:54.959Z,100811.97
2023-09-18T19:43:23.574Z,100810.75
2023-09-18T19:45:51.775Z,100803.06
2023-09-18T19:48:19.879Z,100808.97
2023-09-18T19:50:50.981Z,100815.63
2023-09-18T19:55:46.079Z,100808.38
2023-09-18T19:58:16.012Z,100818.16
2023-09-18T20:03:11.181Z,100814.19
2023-09-18T20:05:39.445Z,100825.75
2023-09-18T20:08:07.730Z,100824.34
2023-09-18T20:10:36.123Z,100823.25
2023-09-18T20:13:04.659Z,100823.31
2023-09-18T20:15:33.135Z,100817.94
2023-09-18T20:18:01.694Z,100811.09
2023-09-18T20:20:29.750Z,100817.00
2023-09-18T20:22:57.434Z,100816.03
2023-09-18T20:25:25.966Z,100819.03
2023-09-18T20:27:54.100Z,100819.41
2023-09-18T20:30:22.659Z,100818.09
2023-09-18T20:32:51.077Z,100811.50
2023-09-18T20:35:19.206Z,100835.09
2023-09-18T20:37:47.369Z,100822.53
2023-09-18T20:40:15.890Z,100815.59
2023-09-18T20:42:44.035Z,100814.81
2023-09-18T20:45:12.527Z,100822.16
2023-09-18T20:47:41.541Z,100828.38
2023-09-18T20:52:40.335Z,100823.37
2023-09-18T20:55:08.894Z,100829.16
2023-09-18T20:57:37.121Z,100828.81
2023-09-18T21:00:06.530Z,100836.78
2023-09-18T21:02:34.728Z,100833.97
2023-09-18T21:05:03.446Z,100834.78
2023-09-18T21:07:31.806Z,100827.59
2023-09-18T21:12:28.277Z,100831.84
2023-09-18T21:14:56.246Z,100826.47
2023-09-18T21:17:24.438Z,100838.53
2023-09-18T21:19:52.861Z,100836.00
2023-09-18T21:22:21.777Z,100847.50
2023-09-18T21:24:50.072Z,100833.66
2023-09-18T21:27:18.112Z,100836.06
2023-09-18T21:32:12.735Z,100835.66
2023-09-18T21:34:40.907Z,100838.78
2023-09-18T21:37:09.475Z,100831.41
2023-09-18T21:39:37.789Z,100842.22
2023-09-18T21:42:06.393Z,100842.56
2023-09-18T21:44:34.562Z,100846.66
2023-09-18T21:49:32.009Z,100828.81
2023-09-18T21:54:26.450Z,100830.47
2023-09-18T21:56:54.417Z,100828.94
2023-09-18T21:59:22.342Z,100824.78
2023-09-18T22:01:54.313Z,100824.06
2023-09-18T22:06:52.028Z,100828.72
2023-09-18T22:14:14.351Z,100842.72
2023-09-18T22:16:42.327Z,100831.59
2023-09-18T22:19:10.627Z,100835.84
2023-09-18T22:21:38.592Z,100837.91
2023-09-18T22:24:06.949Z,100831.47
2023-09-18T22:26:36.490Z,100837.16
2023-09-18T22:29:04.846Z,100820.56
2023-09-18T22:31:32.859Z,100832.56
2023-09-18T22:34:02.513Z,100842.31
2023-09-18T22:36:30.571Z,100836.78
2023-09-18T22:41:40.350Z,100835.12
2023-09-18T22:47:51.739Z,100834.47
2023-09-18T22:50:57.349Z,100833.94
2023-09-18T22:53:26.945Z,100842.66
2023-09-18T22:55:54.850Z,100829.47
2023-09-18T22:58:29.115Z,100832.00
2023-09-18T23:00:59.650Z,100807.25
2023-09-18T23:03:28.526Z,100832.66
2023-09-18T23:05:57.929Z,100834.34
2023-09-18T23:08:25.761Z,100836.66
2023-09-18T23:10:53.569Z,100846.22
2023-09-18T23:13:21.630Z,100840.69
2023-09-18T23:15:49.808Z,100835.16
2023-09-18T23:18:18.106Z,100841.84
2023-09-18T23:23:14.546Z,100837.63
2023-09-18T23:25:43.563Z,100841.31
2023-09-18T23:28:11.677Z,100826.44
2023-09-18T23:30:40.090Z,100836.06
2023-09-18T23:35:39.044Z,100832.81
2023-09-18T23:38:11.808Z,100833.81
2023-09-18T23:40:41.261Z,100837.75
2023-09-18T23:43:10.973Z,100834.22
2023-09-18T23:45:44.334Z,100830.25
2023-09-18T23:48:16.820Z,100844.81
2023-09-18T23:50:44.767Z,100854.16
2023-09-18T23:55:43.592Z,100847.00
2023-09-18T23:58:12.882Z,100844.09
